Big Piney, WY weather

Big Piney-Marbleton Airport (AMOS), Big Piney, WY: 5/31/2016 06:53
Visibility10 statute milesclear sky
View 7-Day Forecast
Area Summary
Sky/CloudsSky Clear
Weather [last 24 hours]None
Pressure30.2 in.Hg (1023 hPa)
Dew Point33.1 F (0.6 C)
Relative Humidity76.3 %
Temperature39.9 F (4.4 C)red thermometer
Wind Chill36.7 F (2.6 C)
Reading TimeMinimum to Maximum Temperature
6-hr ending 5/30@17:5357.9 F to 66 F (14.4 C to 18.9 C)
6-hr ending 5/30@11:5337.9 F to 62.1 F (3.3 C to 16.7 C)
24-hr ending 5/31@00:5337 F to 66 F (2.8 C to 18.9 C)
Wind4.6 MPH (4 KT) green arrow pointing 67.5 degrees
Wind FromEast/Northeast (060 Degrees)
Rolling 24-hr Peak Wind31.1 MPH (27 KT) on 5/30@16:21
Rolling 24-hr Peak Wind FromNorthwest (310 Degrees)
Twilight Begins05:09Sunshine Yesterday
Sunrise05:44N/A
Sunset20:53
Twilight Ends21:28
METARKBPI 311253Z AUTO 06004KT 10SM CLR 04/01 A3020 RMK AO2 SLP171 T00440006
Tags: